»·PEaware :: N4736T KPSP-KSMX

N4736T :: KPSP-KSMX

FLIGHT INFORMATION

Flight Status: Arrived
Operator: Privately registered:
United States
More flights under this callsign
Pilot: Michael F. (9548)
Aircraft: BEECH AIRCRAFT SUPER KING AIR COMMUTER
(BE20)
More flights by this aircraft type
Origin: KPSP Palm Springs Intl
United States
Destination: KSMX Santa Maria Pub/Capt Hancock
United States
More flights between these airports :: More routes between these airports
Route: +CATH1 PSP PMD RZS
File this flight plan on PilotEdge
Remarks:
Altitude:
(Current/Filed)
12,000ft
Speed:
(Current/Filed)
220kts
Departed: 12-Sep-17 09:08 PM
Arrived: 12-Sep-17 11:07 PM
Distance/Time
Traveled:
206nm/1:59
Distance/Time
To Go:
Arrived

Flight Plot

Page will automatically refresh every two minutes.

Flight plan parsing failed; only flown route is shown


Map Options




Map Legend


Flown Route
Filed Route
Departure Airport
Arrival Airport
Navaid (VOR, NDB)
Fix

Horizontal Profiles

Position Reports

Time Latitude Longitude Heading Altitude Ground
Speed
12-Sep-17 20:56 33.823365 -116.498359 55 481ft 0kts
12-Sep-17 20:57 33.823365 -116.498359 55 481ft 0kts
12-Sep-17 20:58 33.823365 -116.498359 55 481ft 0kts
12-Sep-17 20:59 33.823365 -116.498359 55 481ft 0kts
12-Sep-17 21:00 33.823365 -116.498359 55 481ft 0kts
12-Sep-17 21:01 33.823365 -116.498359 55 481ft 0kts
12-Sep-17 21:02 33.823365 -116.498359 55 481ft 0kts
12-Sep-17 21:03 33.823365 -116.498359 55 481ft 0kts
12-Sep-17 21:04 33.823365 -116.498359 55 481ft 0kts
12-Sep-17 21:05 33.823374 -116.498337 65 481ft 0kts
12-Sep-17 21:06 33.822819 -116.497510 146 481ft 9kts
12-Sep-17 21:07 33.821600 -116.496425 143 481ft 9kts
12-Sep-17 21:08 33.820474 -116.495539 174 481ft 0kts
12-Sep-17 21:09 33.819995 -116.495782 214 481ft 0kts
12-Sep-17 21:10 33.819152 -116.497249 238 481ft 14kts
12-Sep-17 21:11 33.819629 -116.498635 322 481ft 40kts
12-Sep-17 21:12 33.827121 -116.505445 322 510ft 112kts
12-Sep-17 21:13 33.840724 -116.517184 323 995ft 142kts
12-Sep-17 21:14 33.858134 -116.532583 323 1663ft 151kts
12-Sep-17 21:15 33.881565 -116.552656 331 2476ft 155kts
12-Sep-17 21:16 33.901139 -116.534789 91 3193ft 175kts
12-Sep-17 21:17 33.892321 -116.499348 108 4013ft 174kts
12-Sep-17 21:18 33.882787 -116.466613 110 4956ft 171kts
12-Sep-17 21:19 33.873520 -116.435013 110 6025ft 163kts
12-Sep-17 21:20 33.864315 -116.401734 111 7307ft 154kts
12-Sep-17 21:21 33.844070 -116.395613 233 8561ft 127kts
12-Sep-17 21:22 33.849666 -116.416757 323 9742ft 140kts
12-Sep-17 21:23 33.872030 -116.428786 325 10990ft 144kts
12-Sep-17 21:24 33.884847 -116.452194 294 12096ft 151kts
12-Sep-17 21:25 33.897755 -116.482380 294 12630ft 183kts
12-Sep-17 21:26 33.914356 -116.516999 297 12997ft 231kts
12-Sep-17 21:27 33.933173 -116.555820 297 13486ft 254kts
12-Sep-17 21:28 33.954029 -116.598902 297 13968ft 264kts
12-Sep-17 21:29 33.974569 -116.641629 297 14012ft 279kts
12-Sep-17 21:30 33.991747 -116.678149 296 14021ft 273kts
12-Sep-17 21:31 34.010213 -116.717385 296 14046ft 270kts
12-Sep-17 21:32 34.029877 -116.758954 296 14074ft 268kts
12-Sep-17 21:33 34.049247 -116.799860 296 14104ft 273kts
12-Sep-17 21:34 34.069174 -116.841932 296 14134ft 280kts
12-Sep-17 21:35 34.090385 -116.886749 296 14161ft 285kts
12-Sep-17 21:36 34.110429 -116.928354 296 14159ft 287kts
12-Sep-17 21:37 34.131713 -116.972195 296 14157ft 289kts
12-Sep-17 21:38 34.152530 -117.015480 295 14156ft 290kts
12-Sep-17 21:39 34.173233 -117.058867 294 14156ft 291kts
12-Sep-17 21:40 34.193890 -117.102411 293 14156ft 292kts
12-Sep-17 21:41 34.214523 -117.146197 293 14156ft 293kts
12-Sep-17 21:42 34.234227 -117.188565 292 14156ft 293kts
12-Sep-17 21:43 34.253880 -117.230945 292 14157ft 294kts
12-Sep-17 21:44 34.274528 -117.275401 293 14159ft 295kts
12-Sep-17 21:45 34.296764 -117.322980 293 14163ft 296kts
12-Sep-17 21:46 34.323236 -117.377213 294 14169ft 297kts
12-Sep-17 21:47 34.348677 -117.426964 296 14172ft 297kts
12-Sep-17 21:48 34.370960 -117.475676 288 14177ft 293kts
12-Sep-17 21:49 34.389052 -117.521437 290 14180ft 294kts
12-Sep-17 21:50 34.410032 -117.570519 291 14184ft 295kts
12-Sep-17 21:51 34.431746 -117.619210 292 14184ft 296kts
12-Sep-17 21:52 34.452904 -117.666066 291 14183ft 295kts
12-Sep-17 21:53 34.473548 -117.712025 292 14180ft 296kts
12-Sep-17 21:54 34.494407 -117.757887 292 14178ft 296kts
12-Sep-17 21:55 34.514760 -117.802393 292 14177ft 296kts
12-Sep-17 21:56 34.534944 -117.846453 292 14176ft 296kts
12-Sep-17 21:57 34.554924 -117.889995 292 14177ft 296kts
12-Sep-17 21:58 34.574945 -117.933714 292 14176ft 296kts
12-Sep-17 21:59 34.594527 -117.976517 292 14174ft 296kts
12-Sep-17 22:00 34.609311 -118.008897 292 14173ft 296kts
12-Sep-17 22:01 34.627336 -118.048280 292 14175ft 296kts
12-Sep-17 22:02 34.637690 -118.096952 259 14181ft 276kts
12-Sep-17 22:03 34.629038 -118.142817 258 14171ft 275kts
12-Sep-17 22:04 34.626559 -118.190098 260 14180ft 277kts
12-Sep-17 22:05 34.623787 -118.241260 259 14178ft 277kts
12-Sep-17 22:06 34.620898 -118.291629 259 14177ft 277kts
12-Sep-17 22:07 34.618086 -118.339874 259 14177ft 276kts
12-Sep-17 22:08 34.615014 -118.391943 259 14171ft 276kts
12-Sep-17 22:09 34.611806 -118.445207 259 14165ft 276kts
12-Sep-17 22:10 34.608565 -118.498550 259 14158ft 272kts
12-Sep-17 22:11 34.605566 -118.548976 259 14147ft 259kts
12-Sep-17 22:12 34.602482 -118.600415 259 14150ft 253kts
12-Sep-17 22:13 34.599427 -118.649873 258 14157ft 251kts
12-Sep-17 22:14 34.596816 -118.689992 259 14163ft 251kts
12-Sep-17 22:15 34.593729 -118.743415 258 14169ft 250kts
12-Sep-17 22:16 34.590239 -118.792041 257 14172ft 249kts
12-Sep-17 22:17 34.586470 -118.841671 257 14168ft 249kts
12-Sep-17 22:18 34.582505 -118.893080 257 14162ft 250kts
12-Sep-17 22:19 34.578604 -118.942564 257 14157ft 251kts
12-Sep-17 22:20 34.574550 -118.994384 257 14153ft 251kts
12-Sep-17 22:21 34.570506 -119.045636 257 14150ft 252kts
12-Sep-17 22:22 34.566557 -119.095581 257 14148ft 253kts
12-Sep-17 22:23 34.562555 -119.146065 257 14146ft 253kts
12-Sep-17 22:24 34.558314 -119.199045 257 14144ft 253kts
12-Sep-17 22:25 34.554042 -119.252093 257 14142ft 253kts
12-Sep-17 22:26 34.549573 -119.307262 257 14140ft 253kts
12-Sep-17 22:27 34.545167 -119.361354 257 14138ft 253kts
12-Sep-17 22:28 34.541140 -119.410612 257 14136ft 253kts
12-Sep-17 22:29 34.536964 -119.461426 257 14133ft 253kts
12-Sep-17 22:30 34.532810 -119.511736 257 14131ft 253kts
12-Sep-17 22:31 34.528685 -119.560197 258 13605ft 268kts
12-Sep-17 22:32 34.524057 -119.614491 258 12876ft 272kts
12-Sep-17 22:33 34.521038 -119.651576 257 12149ft 246kts
12-Sep-17 22:34 34.517457 -119.694261 257 11251ft 227kts
12-Sep-17 22:35 34.513694 -119.735348 258 10346ft 215kts
12-Sep-17 22:36 34.513511 -119.775325 270 9437ft 208kts
12-Sep-17 22:37 34.515563 -119.809677 271 8519ft 201kts
12-Sep-17 22:38 34.517233 -119.839307 272 7631ft 199kts
12-Sep-17 22:39 34.518832 -119.866994 273 6844ft 217kts
12-Sep-17 22:40 34.520731 -119.897961 273 6286ft 227kts
12-Sep-17 22:41 34.522764 -119.928187 273 6244ft 216kts
12-Sep-17 22:42 34.524816 -119.958763 273 6080ft 218kts
12-Sep-17 22:43 34.526698 -119.987106 273 6078ft 216kts
12-Sep-17 22:44 34.528237 -120.011082 272 6088ft 224kts
12-Sep-17 22:45 34.529664 -120.034279 272 6097ft 239kts
12-Sep-17 22:46 34.530916 -120.055654 272 6095ft 246kts
12-Sep-17 22:47 34.531881 -120.075120 271 6060ft 247kts
12-Sep-17 22:48 34.537069 -120.093643 302 5714ft 246kts
12-Sep-17 22:49 34.546380 -120.107107 309 5458ft 243kts
12-Sep-17 22:50 34.555899 -120.119548 310 5200ft 238kts
12-Sep-17 22:51 34.567378 -120.134175 311 4883ft 231kts
12-Sep-17 22:52 34.578653 -120.148393 311 4567ft 227kts
12-Sep-17 22:53 34.590837 -120.163690 311 4397ft 216kts
12-Sep-17 22:54 34.600398 -120.175629 311 4381ft 205kts
12-Sep-17 22:55 34.610052 -120.187613 311 4380ft 203kts
12-Sep-17 22:56 34.620115 -120.200162 311 4408ft 225kts
12-Sep-17 22:57 34.631023 -120.213797 312 4415ft 239kts
12-Sep-17 22:58 34.642575 -120.228238 312 4432ft 247kts
12-Sep-17 22:59 34.654492 -120.243108 312 4456ft 251kts
12-Sep-17 23:00 34.670484 -120.263571 313 4491ft 255kts
12-Sep-17 23:01 34.697633 -120.298011 316 4547ft 247kts
12-Sep-17 23:02 34.722516 -120.327942 326 4352ft 215kts
12-Sep-17 23:03 34.750410 -120.347090 332 3609ft 210kts
12-Sep-17 23:04 34.778361 -120.366072 332 2837ft 208kts
12-Sep-17 23:05 34.804252 -120.384100 331 2415ft 195kts
12-Sep-17 23:06 34.828497 -120.401165 332 2075ft 181kts
12-Sep-17 23:07 34.849381 -120.415664 332 1676ft 126kts
12-Sep-17 23:08 34.863238 -120.425180 336 1245ft 121kts
12-Sep-17 23:09 34.878773 -120.434239 337 747ft 115kts
12-Sep-17 23:10 34.892585 -120.445733 320 315ft 107kts
12-Sep-17 23:11 34.897749 -120.452181 52 265ft 22kts
12-Sep-17 23:12 34.899404 -120.453302 357 265ft 14kts

Navigation Log

Ident Type
Flight plan parsing failed, navigation log unavailable